createdAt,value
2022-11-02T00:01:22.646Z,98986.25
2022-11-02T00:03:49.146Z,98975.63
2022-11-02T00:06:15.599Z,98975.25
2022-11-02T00:08:42.164Z,98976.97
2022-11-02T00:11:09.084Z,98978.47
2022-11-02T00:13:35.553Z,98976.22
2022-11-02T00:16:09.696Z,98972.94
2022-11-02T00:18:37.668Z,98974.44
2022-11-02T00:21:04.768Z,98970.38
2022-11-02T00:23:32.174Z,98973.91
2022-11-02T00:26:02.560Z,98973.53
2022-11-02T00:28:30.286Z,98973.16
2022-11-02T00:30:56.728Z,98984.16
2022-11-02T00:33:23.286Z,98979.59
2022-11-02T00:35:49.775Z,98968.00
2022-11-02T00:38:16.712Z,98970.09
2022-11-02T00:40:43.936Z,98970.69
2022-11-02T00:43:10.906Z,98972.69
2022-11-02T00:45:38.380Z,98967.16
2022-11-02T00:48:05.878Z,98967.91
2022-11-02T00:50:32.671Z,98971.34
2022-11-02T00:52:59.651Z,98973.56
2022-11-02T00:55:26.331Z,98977.75
2022-11-02T00:57:56.278Z,98971.41
2022-11-02T01:00:22.828Z,98973.94
2022-11-02T01:02:49.397Z,98972.38
2022-11-02T01:05:16.107Z,98974.03
2022-11-02T01:07:42.599Z,98978.28
2022-11-02T01:10:10.747Z,98974.25
2022-11-02T01:12:38.730Z,98973.84
2022-11-02T01:15:07.990Z,98974.63
2022-11-02T01:17:34.642Z,98956.66
2022-11-02T01:20:05.493Z,98970.13
2022-11-02T01:22:32.472Z,98957.16
2022-11-02T01:24:58.912Z,98959.34
2022-11-02T01:27:26.261Z,98960.22
2022-11-02T01:29:52.703Z,98959.00
2022-11-02T01:32:19.141Z,98950.16
2022-11-02T01:34:45.592Z,98955.56
2022-11-02T01:37:12.063Z,98957.66
2022-11-02T01:39:38.525Z,98952.69
2022-11-02T01:42:17.074Z,98951.59
2022-11-02T01:44:44.876Z,98948.56
2022-11-02T01:47:21.527Z,98945.09
2022-11-02T01:49:53.323Z,98942.31
2022-11-02T01:52:24.508Z,98945.47
2022-11-02T01:54:55.871Z,98946.19
2022-11-02T01:57:22.810Z,98937.91
2022-11-02T01:59:55.981Z,98941.34
2022-11-02T02:02:24.625Z,98945.34
2022-11-02T02:04:59.290Z,98935.66
2022-11-02T02:07:26.968Z,98949.22
2022-11-02T02:09:55.156Z,98946.91
2022-11-02T02:12:23.915Z,98940.28
2022-11-02T02:14:51.218Z,98937.22
2022-11-02T02:17:31.629Z,98939.31
2022-11-02T02:20:14.862Z,98937.53
2022-11-02T02:23:13.448Z,98929.63
2022-11-02T02:26:38.741Z,98942.06
2022-11-02T02:29:13.985Z,98934.84
2022-11-02T02:31:46.911Z,98940.56
2022-11-02T02:34:19.758Z,98946.28
2022-11-02T02:36:52.176Z,98928.69
2022-11-02T02:39:36.217Z,98931.44
2022-11-02T02:42:09.859Z,98924.75
2022-11-02T02:44:37.210Z,98917.00
2022-11-02T02:47:14.131Z,98919.22
2022-11-02T02:49:50.223Z,98929.91
2022-11-02T02:52:19.790Z,98927.66
2022-11-02T02:54:49.822Z,98930.34
2022-11-02T02:57:21.674Z,98930.53
2022-11-02T02:59:49.148Z,98927.00
2022-11-02T03:02:30.294Z,98929.09
2022-11-02T03:04:56.940Z,98930.84
2022-11-02T03:07:31.083Z,98931.66
2022-11-02T03:10:20.761Z,98920.59
2022-11-02T03:13:16.571Z,98929.69
2022-11-02T03:15:54.677Z,98933.59
2022-11-02T03:18:36.368Z,98938.13
2022-11-02T03:21:30.174Z,98934.50
2022-11-02T03:23:59.731Z,98933.41
2022-11-02T03:26:45.757Z,98932.69
2022-11-02T03:29:21.522Z,98935.97
2022-11-02T03:31:57.892Z,98946.06
2022-11-02T03:34:26.591Z,98946.78
2022-11-02T03:37:19.510Z,98947.34
2022-11-02T03:39:50.143Z,98952.91
2022-11-02T03:42:21.274Z,98940.31
2022-11-02T03:44:57.745Z,98951.72
2022-11-02T03:47:26.124Z,98944.97
2022-11-02T03:49:55.525Z,98946.66
2022-11-02T03:52:28.000Z,98952.97
2022-11-02T03:55:03.532Z,98971.34
2022-11-02T03:57:40.523Z,98968.09
2022-11-02T04:00:14.499Z,98972.66
2022-11-02T04:02:45.638Z,98968.81
2022-11-02T04:05:13.358Z,98967.72
2022-11-02T04:08:03.731Z,98972.44
2022-11-02T04:10:31.234Z,98983.84
2022-11-02T04:13:16.447Z,98976.19
2022-11-02T04:15:43.299Z,98981.19
2022-11-02T04:18:29.377Z,98985.41
2022-11-02T04:20:55.918Z,98977.94
2022-11-02T04:23:40.965Z,98992.31
2022-11-02T04:26:07.523Z,98993.94
2022-11-02T04:28:43.915Z,98987.03
2022-11-02T04:31:12.961Z,98994.56
2022-11-02T04:33:41.304Z,98989.47
2022-11-02T04:36:14.013Z,98999.94
2022-11-02T04:38:41.217Z,99003.69
2022-11-02T04:41:39.531Z,99009.41
2022-11-02T04:44:11.836Z,99007.50
2022-11-02T04:46:39.709Z,99007.41
2022-11-02T04:49:09.172Z,99015.13
2022-11-02T04:51:40.079Z,99018.13
2022-11-02T04:54:07.872Z,99026.59
2022-11-02T04:56:34.593Z,99025.44
2022-11-02T04:59:01.918Z,99032.53
2022-11-02T05:01:31.381Z,99030.97
2022-11-02T05:04:00.251Z,99025.59
2022-11-02T05:06:29.433Z,99019.13
2022-11-02T05:08:56.159Z,99020.81
2022-11-02T05:11:24.320Z,99023.16
2022-11-02T05:13:51.613Z,99029.44
2022-11-02T05:16:19.304Z,99031.06
2022-11-02T05:18:49.155Z,99045.94
2022-11-02T05:21:17.227Z,99049.03
2022-11-02T05:23:43.701Z,99045.47
2022-11-02T05:26:12.073Z,99044.72
2022-11-02T05:28:42.415Z,99047.94
2022-11-02T05:31:08.925Z,99050.94
2022-11-02T05:33:36.729Z,99052.47
2022-11-02T05:36:10.999Z,99053.66
2022-11-02T05:41:12.261Z,99061.41
2022-11-02T05:43:40.056Z,99060.88
2022-11-02T05:46:09.060Z,99061.03
2022-11-02T05:48:35.547Z,99061.41
2022-11-02T05:51:03.836Z,99068.06
2022-11-02T05:53:34.091Z,99067.06
2022-11-02T05:56:01.954Z,99077.00
2022-11-02T05:58:29.158Z,99074.59
2022-11-02T06:01:00.091Z,99072.78
2022-11-02T06:03:26.952Z,99082.44
2022-11-02T06:05:58.135Z,99078.97
2022-11-02T06:08:24.750Z,99089.47
2022-11-02T06:10:51.229Z,99083.63
2022-11-02T06:13:17.702Z,99090.63
2022-11-02T06:15:44.108Z,99094.34
2022-11-02T06:18:10.615Z,99100.28
2022-11-02T06:20:37.111Z,99100.84
2022-11-02T06:23:03.959Z,99097.09
2022-11-02T06:25:30.707Z,99103.13
2022-11-02T06:27:57.540Z,99111.50
2022-11-02T06:30:28.150Z,99108.59
2022-11-02T06:32:54.964Z,99120.41
2022-11-02T06:35:22.421Z,99119.00
2022-11-02T06:37:48.975Z,99119.88
2022-11-02T06:40:15.905Z,99123.25
2022-11-02T06:42:50.411Z,99127.06
2022-11-02T06:45:24.134Z,99134.81
2022-11-02T06:47:51.003Z,99137.75
2022-11-02T06:50:17.655Z,99137.94
2022-11-02T06:52:45.823Z,99136.81
2022-11-02T06:55:14.074Z,99147.59
2022-11-02T06:57:41.900Z,99149.50
2022-11-02T07:00:16.554Z,99155.50
2022-11-02T07:02:45.813Z,99154.16
2022-11-02T07:05:12.858Z,99161.72
2022-11-02T07:07:39.418Z,99159.56
2022-11-02T07:10:09.033Z,99165.00
2022-11-02T07:12:35.492Z,99188.59
2022-11-02T07:15:01.931Z,99189.22
2022-11-02T07:17:32.156Z,99190.97
2022-11-02T07:19:59.009Z,99196.91
2022-11-02T07:22:25.543Z,99198.44
2022-11-02T07:24:52.167Z,99194.69
2022-11-02T07:27:20.624Z,99202.78
2022-11-02T07:29:47.340Z,99204.53
2022-11-02T07:32:13.905Z,99206.97
2022-11-02T07:34:40.453Z,99212.72
2022-11-02T07:37:06.889Z,99214.34
2022-11-02T07:39:33.321Z,99214.09
2022-11-02T07:41:59.868Z,99221.72
2022-11-02T07:44:26.397Z,99219.69
2022-11-02T07:46:52.919Z,99225.63
2022-11-02T07:49:21.679Z,99225.25
2022-11-02T07:51:48.494Z,99228.84
2022-11-02T07:54:14.982Z,99221.56
2022-11-02T07:56:41.424Z,99224.63
2022-11-02T07:59:10.454Z,99224.91
2022-11-02T08:01:36.999Z,99225.59
2022-11-02T08:04:03.586Z,99229.69
2022-11-02T08:06:30.117Z,99228.63
2022-11-02T08:08:57.288Z,99226.78
2022-11-02T08:11:23.787Z,99236.00
2022-11-02T08:13:50.262Z,99239.44
2022-11-02T08:16:16.819Z,99238.34
2022-11-02T08:18:43.344Z,99234.38
2022-11-02T08:21:09.806Z,99242.84
2022-11-02T08:23:36.235Z,99237.75
2022-11-02T08:26:02.666Z,99245.34
2022-11-02T08:28:32.280Z,99239.84
2022-11-02T08:30:59.135Z,99241.91
2022-11-02T08:33:25.659Z,99244.47
2022-11-02T08:35:53.155Z,99243.88
2022-11-02T08:38:22.540Z,99257.50
2022-11-02T08:40:49.614Z,99236.28
2022-11-02T08:43:16.382Z,99242.78
2022-11-02T08:48:32.320Z,99255.53
2022-11-02T08:50:59.111Z,99251.53
2022-11-02T08:53:25.588Z,99251.63
2022-11-02T08:55:52.068Z,99240.78
2022-11-02T08:58:18.647Z,99240.59
2022-11-02T09:00:48.700Z,99248.75
2022-11-02T09:03:17.192Z,99249.50
2022-11-02T09:05:46.967Z,99251.97
2022-11-02T09:08:18.876Z,99240.69
2022-11-02T09:10:49.140Z,99252.13
2022-11-02T09:13:18.286Z,99251.13
2022-11-02T09:15:44.724Z,99242.25
2022-11-02T09:18:11.240Z,99249.22
2022-11-02T09:20:37.921Z,99253.09
2022-11-02T09:23:04.532Z,99255.44
2022-11-02T09:25:31.106Z,99242.88
2022-11-02T09:27:58.408Z,99253.31
2022-11-02T09:30:26.278Z,99241.25
2022-11-02T09:32:57.794Z,99253.72
2022-11-02T09:35:26.258Z,99256.38
2022-11-02T09:37:52.803Z,99258.03
2022-11-02T09:40:37.857Z,99253.31
2022-11-02T09:43:13.422Z,99256.97
2022-11-02T09:45:55.193Z,99257.00
2022-11-02T09:48:44.153Z,99247.88
2022-11-02T09:51:25.481Z,99262.00
2022-11-02T09:54:06.820Z,99273.28
2022-11-02T09:56:35.204Z,99268.22
2022-11-02T09:59:13.474Z,99268.03
2022-11-02T10:01:58.288Z,99280.50
2022-11-02T10:04:46.735Z,99275.53
2022-11-02T10:07:50.807Z,99276.19
2022-11-02T10:10:27.505Z,99265.34
2022-11-02T10:13:10.434Z,99276.06
2022-11-02T10:15:47.754Z,99267.97
2022-11-02T10:18:20.593Z,99261.31
2022-11-02T10:20:51.434Z,99263.22
2022-11-02T10:23:33.470Z,99262.03
2022-11-02T10:26:02.062Z,99265.13
2022-11-02T10:28:34.916Z,99256.84
2022-11-02T10:31:02.745Z,99251.50
2022-11-02T10:33:30.860Z,99255.91
2022-11-02T10:36:19.483Z,99238.94
2022-11-02T10:39:01.216Z,99253.34
2022-11-02T10:41:58.419Z,99258.25
2022-11-02T10:44:46.225Z,99259.41
2022-11-02T10:47:19.956Z,99248.59
2022-11-02T10:50:14.449Z,99247.66
2022-11-02T10:52:44.692Z,99255.94
2022-11-02T10:55:37.082Z,99256.66
2022-11-02T10:58:06.606Z,99247.72
2022-11-02T11:00:37.340Z,99247.66
2022-11-02T11:03:09.451Z,99244.88
2022-11-02T11:05:50.109Z,99238.19
2022-11-02T11:08:28.444Z,99239.91
2022-11-02T11:10:54.993Z,99239.13
2022-11-02T11:16:14.750Z,99232.28
2022-11-02T11:21:40.321Z,99224.78
2022-11-02T11:24:30.305Z,99221.72
2022-11-02T11:27:12.440Z,99220.56
2022-11-02T11:29:41.459Z,99213.38
2022-11-02T11:32:22.029Z,99229.72
2022-11-02T11:34:59.887Z,99229.84
2022-11-02T11:37:26.752Z,99226.38
2022-11-02T11:39:58.410Z,99225.78
2022-11-02T11:42:28.082Z,99222.28
2022-11-02T11:44:59.279Z,99214.34
2022-11-02T11:47:28.440Z,99209.78
2022-11-02T11:50:13.952Z,99212.09
2022-11-02T11:52:43.260Z,99197.84
2022-11-02T11:55:31.634Z,99208.63
2022-11-02T11:58:27.004Z,99212.03
2022-11-02T12:01:16.131Z,99226.72
2022-11-02T12:04:03.106Z,99210.59
2022-11-02T12:06:43.211Z,99212.84
2022-11-02T12:09:20.776Z,99214.53
2022-11-02T12:12:10.956Z,99206.81
2022-11-02T12:15:13.012Z,99212.16
2022-11-02T12:18:01.144Z,99207.94
2022-11-02T12:20:47.444Z,99203.19
2022-11-02T12:23:46.021Z,99201.16
2022-11-02T12:26:26.697Z,99192.97
2022-11-02T12:29:17.756Z,99198.91
2022-11-02T12:31:50.769Z,99191.53
2022-11-02T12:34:22.884Z,99198.69
2022-11-02T12:37:27.400Z,99190.53
2022-11-02T12:40:13.359Z,99186.88
2022-11-02T12:43:10.184Z,99192.16
2022-11-02T12:46:13.511Z,99185.44
2022-11-02T12:49:07.136Z,99186.25
2022-11-02T12:51:40.745Z,99184.38
2022-11-02T12:54:11.939Z,99188.84
2022-11-02T12:56:49.895Z,99183.75
2022-11-02T12:59:22.031Z,99175.94
2022-11-02T13:01:53.377Z,99173.28
2022-11-02T13:04:36.865Z,99173.69
2022-11-02T13:07:11.645Z,99172.88
2022-11-02T13:09:54.508Z,99165.13
2022-11-02T13:12:24.636Z,99164.72
2022-11-02T13:14:58.272Z,99166.19
2022-11-02T13:17:40.760Z,99167.44
2022-11-02T13:20:18.797Z,99174.38
2022-11-02T13:22:51.309Z,99177.47
2022-11-02T13:25:22.169Z,99174.78
2022-11-02T13:27:55.158Z,99182.16
2022-11-02T13:30:21.681Z,99180.53
2022-11-02T13:33:19.686Z,99173.16
2022-11-02T13:35:47.191Z,99171.94
2022-11-02T13:38:37.809Z,99168.88
2022-11-02T13:41:24.832Z,99168.44
2022-11-02T13:44:11.391Z,99164.13
2022-11-02T13:46:58.673Z,99160.44
2022-11-02T13:49:30.672Z,99157.94
2022-11-02T13:52:03.438Z,99162.84
2022-11-02T13:54:46.099Z,99161.41
2022-11-02T13:57:35.691Z,99153.22
2022-11-02T14:00:04.830Z,99152.81
2022-11-02T14:02:37.407Z,99146.28
2022-11-02T14:05:04.347Z,99149.75
2022-11-02T14:07:35.509Z,99148.50
2022-11-02T14:10:09.847Z,99143.59
2022-11-02T14:12:45.300Z,99140.34
2022-11-02T14:15:14.645Z,99144.22
2022-11-02T14:17:53.361Z,99141.75
2022-11-02T14:20:36.034Z,99131.16
2022-11-02T14:23:11.725Z,99127.47
2022-11-02T14:25:49.214Z,99134.38
2022-11-02T14:28:25.672Z,99137.03
2022-11-02T14:31:04.217Z,99132.72
2022-11-02T14:33:38.639Z,99136.31
2022-11-02T14:36:17.087Z,99139.00
2022-11-02T14:38:58.187Z,99120.81
2022-11-02T14:41:49.948Z,99120.63
2022-11-02T14:44:37.625Z,99134.06
2022-11-02T14:47:16.408Z,99123.06
2022-11-02T14:49:50.816Z,99125.44
2022-11-02T14:52:26.597Z,99123.00
2022-11-02T14:54:59.559Z,99121.38
2022-11-02T14:57:52.279Z,99120.75
2022-11-02T15:00:27.700Z,99113.94
2022-11-02T15:02:54.436Z,99114.78
2022-11-02T15:05:23.624Z,99118.47
2022-11-02T15:07:54.635Z,99122.88
2022-11-02T15:10:21.025Z,99119.16
2022-11-02T15:12:48.568Z,99112.84
2022-11-02T15:15:36.571Z,99117.97
2022-11-02T15:18:30.909Z,99114.22
2022-11-02T15:21:10.041Z,99110.28
2022-11-02T15:24:01.485Z,99107.41
2022-11-02T15:26:40.855Z,99112.75
2022-11-02T15:29:36.898Z,99116.78
2022-11-02T15:32:06.476Z,99117.94
2022-11-02T15:34:47.470Z,99117.06
2022-11-02T15:37:20.155Z,99118.69
2022-11-02T15:39:55.306Z,99117.97
2022-11-02T15:42:41.029Z,99109.72
2022-11-02T15:45:49.387Z,99119.56
2022-11-02T15:48:42.852Z,99111.16
2022-11-02T15:51:37.099Z,99114.47
2022-11-02T15:54:09.597Z,99111.28
2022-11-02T15:56:49.067Z,99111.19
2022-11-02T15:59:18.515Z,99107.72
2022-11-02T16:01:45.359Z,99103.53
2022-11-02T16:04:20.254Z,99105.69
2022-11-02T16:06:47.149Z,99099.47
2022-11-02T16:09:40.638Z,99091.88
2022-11-02T16:12:19.200Z,99088.91
2022-11-02T16:14:51.257Z,99087.59
2022-11-02T16:17:28.527Z,99091.56
2022-11-02T16:20:22.041Z,99092.03
2022-11-02T16:22:51.249Z,99095.44
2022-11-02T16:25:25.829Z,99095.00
2022-11-02T16:27:52.479Z,99080.38
2022-11-02T16:30:21.259Z,99078.66
2022-11-02T16:32:53.200Z,99082.09
2022-11-02T16:35:21.266Z,99080.00
2022-11-02T16:37:49.666Z,99077.38
2022-11-02T16:40:18.528Z,99076.97
2022-11-02T16:42:46.963Z,99073.34
2022-11-02T16:45:43.862Z,99078.03
2022-11-02T16:48:32.940Z,99074.38
2022-11-02T16:51:02.200Z,99073.78
2022-11-02T16:53:31.489Z,99073.78
2022-11-02T16:56:13.489Z,99073.63
2022-11-02T16:58:47.317Z,99080.84
2022-11-02T17:01:22.723Z,99077.72
2022-11-02T17:03:50.116Z,99084.16
2022-11-02T17:06:18.610Z,99086.59
2022-11-02T17:08:52.220Z,99075.13
2022-11-02T17:11:19.033Z,99073.31
2022-11-02T17:13:52.520Z,99075.63
2022-11-02T17:16:19.605Z,99083.50
2022-11-02T17:18:46.400Z,99080.38
2022-11-02T17:21:12.990Z,99090.06
2022-11-02T17:23:42.547Z,99087.41
2022-11-02T17:26:31.736Z,99088.25
2022-11-02T17:29:24.015Z,99084.28
2022-11-02T17:32:01.030Z,99081.00
2022-11-02T17:34:28.239Z,99083.31
2022-11-02T17:36:55.112Z,99080.53
2022-11-02T17:39:21.791Z,99079.72
2022-11-02T17:42:15.014Z,99068.06
2022-11-02T17:44:42.129Z,99063.63
2022-11-02T17:47:13.510Z,99069.97
2022-11-02T17:49:40.044Z,99069.09
2022-11-02T17:52:07.034Z,99057.16
2022-11-02T17:54:33.518Z,99058.00
2022-11-02T17:57:01.544Z,99068.50
2022-11-02T17:59:28.079Z,99073.84
2022-11-02T18:01:54.624Z,99078.94
2022-11-02T18:04:21.164Z,99089.56
2022-11-02T18:06:47.596Z,99096.00
2022-11-02T18:09:14.604Z,99079.59
2022-11-02T18:11:41.655Z,99076.19
2022-11-02T18:14:13.967Z,99077.34
2022-11-02T18:16:40.411Z,99088.16
2022-11-02T18:19:06.890Z,99085.09
2022-11-02T18:21:33.777Z,99080.88
2022-11-02T18:24:00.238Z,99083.84
2022-11-02T18:26:26.687Z,99086.91
2022-11-02T18:28:53.140Z,99085.31
2022-11-02T18:31:19.664Z,99081.34
2022-11-02T18:33:46.127Z,99077.06
2022-11-02T18:36:12.609Z,99074.03
2022-11-02T18:38:39.139Z,99066.22
2022-11-02T18:41:27.022Z,99075.88
2022-11-02T18:43:59.087Z,99061.44
2022-11-02T18:46:30.672Z,99062.91
2022-11-02T18:48:57.975Z,99055.53
2022-11-02T18:51:24.848Z,99051.22
2022-11-02T18:53:56.564Z,99052.16
2022-11-02T18:56:23.760Z,99061.78
2022-11-02T18:58:51.822Z,99059.00
2022-11-02T19:01:19.852Z,99052.72
2022-11-02T19:03:50.871Z,99052.63
2022-11-02T19:06:36.770Z,99044.88
2022-11-02T19:09:19.067Z,99044.97
2022-11-02T19:11:56.557Z,99051.50
2022-11-02T19:14:23.993Z,99037.66
2022-11-02T19:16:50.469Z,99033.63
2022-11-02T19:19:17.068Z,99040.66
2022-11-02T19:21:43.580Z,99033.00
2022-11-02T19:24:10.144Z,99033.94
2022-11-02T19:26:36.944Z,99027.25
2022-11-02T19:29:06.365Z,99025.66
2022-11-02T19:31:34.284Z,99023.38
2022-11-02T19:34:00.955Z,99017.56
2022-11-02T19:36:27.768Z,99020.03
2022-11-02T19:38:54.219Z,99013.63
2022-11-02T19:41:21.690Z,99017.91
2022-11-02T19:43:48.243Z,99009.50
2022-11-02T19:46:17.147Z,99016.84
2022-11-02T19:48:43.654Z,99012.13
2022-11-02T19:51:19.246Z,99013.72
2022-11-02T19:53:49.553Z,99009.28
2022-11-02T19:56:16.727Z,99006.72
2022-11-02T19:58:45.295Z,99005.94
2022-11-02T20:01:36.435Z,99004.31
2022-11-02T20:04:04.497Z,99001.63
2022-11-02T20:06:39.608Z,98997.50
2022-11-02T20:09:12.920Z,98993.94
2022-11-02T20:11:44.200Z,98992.50
2022-11-02T20:14:12.287Z,98984.75
2022-11-02T20:16:39.462Z,98983.44
2022-11-02T20:19:06.589Z,98986.72
2022-11-02T20:21:36.841Z,98989.63
2022-11-02T20:24:08.184Z,98987.53
2022-11-02T20:26:36.450Z,98981.00
2022-11-02T20:29:05.246Z,98983.59
2022-11-02T20:31:36.940Z,98983.59
2022-11-02T20:34:05.234Z,98983.69
2022-11-02T20:36:31.917Z,98985.56
2022-11-02T20:38:58.796Z,98982.19
2022-11-02T20:41:26.080Z,98982.94
2022-11-02T20:43:55.083Z,98988.53
2022-11-02T20:46:37.039Z,98985.25
2022-11-02T20:49:14.334Z,98989.50
2022-11-02T20:51:51.192Z,98983.16
2022-11-02T20:54:19.480Z,98980.81
2022-11-02T20:56:46.600Z,98982.94
2022-11-02T20:59:13.088Z,98977.84
2022-11-02T21:01:39.783Z,98974.91
2022-11-02T21:04:06.701Z,98967.75
2022-11-02T21:06:33.279Z,98968.38
2022-11-02T21:09:00.463Z,98966.25
2022-11-02T21:11:45.725Z,98967.41
2022-11-02T21:14:12.175Z,98975.16
2022-11-02T21:16:38.715Z,98963.94
2022-11-02T21:19:06.715Z,98971.41
2022-11-02T21:21:33.277Z,98969.19
2022-11-02T21:23:59.795Z,98967.75
2022-11-02T21:26:26.301Z,98959.16
2022-11-02T21:28:52.778Z,98966.13
2022-11-02T21:31:21.405Z,98952.31
2022-11-02T21:33:49.525Z,98961.69
2022-11-02T21:36:17.589Z,98954.88
2022-11-02T21:38:45.116Z,98953.78
2022-11-02T21:41:17.971Z,98948.22
2022-11-02T21:43:44.426Z,98954.66
2022-11-02T21:46:10.960Z,98953.75
2022-11-02T21:48:38.193Z,98940.72
2022-11-02T21:51:15.426Z,98944.97
2022-11-02T21:53:43.971Z,98935.94
2022-11-02T21:56:11.905Z,98931.69
2022-11-02T21:58:44.624Z,98940.13
2022-11-02T22:01:40.686Z,98939.44
2022-11-02T22:04:08.576Z,98933.06
2022-11-02T22:06:37.398Z,98930.66
2022-11-02T22:09:07.179Z,98928.34
2022-11-02T22:11:33.714Z,98926.34
2022-11-02T22:14:01.214Z,98918.16
2022-11-02T22:16:34.769Z,98917.22
2022-11-02T22:19:04.200Z,98913.53
2022-11-02T22:21:34.464Z,98909.75
2022-11-02T22:24:01.481Z,98919.72
2022-11-02T22:26:30.261Z,98914.34
2022-11-02T22:28:57.966Z,98912.41
2022-11-02T22:31:27.459Z,98915.53
2022-11-02T22:33:56.611Z,98909.13
2022-11-02T22:36:25.485Z,98905.38
2022-11-02T22:38:55.956Z,98909.75
2022-11-02T22:41:24.222Z,98909.44
2022-11-02T22:43:53.819Z,98905.84
2022-11-02T22:46:24.671Z,98903.69
2022-11-02T22:48:52.235Z,98895.19
2022-11-02T22:51:20.938Z,98894.31
2022-11-02T22:53:48.282Z,98884.34
2022-11-02T22:56:16.088Z,98880.09
2022-11-02T22:58:44.422Z,98874.56
2022-11-02T23:01:16.498Z,98879.34
2022-11-02T23:03:43.620Z,98883.19
2022-11-02T23:06:10.726Z,98871.91
2022-11-02T23:08:39.552Z,98875.13
2022-11-02T23:11:23.206Z,98884.94
2022-11-02T23:14:07.787Z,98880.06
2022-11-02T23:16:37.003Z,98882.41
2022-11-02T23:19:30.993Z,98877.06
2022-11-02T23:22:25.801Z,98869.69
2022-11-02T23:25:12.873Z,98877.50
2022-11-02T23:28:06.624Z,98880.78
2022-11-02T23:30:53.944Z,98877.81
2022-11-02T23:33:22.190Z,98871.41
2022-11-02T23:36:07.867Z,98868.16
2022-11-02T23:38:53.109Z,98864.13
2022-11-02T23:41:19.911Z,98864.66
2022-11-02T23:43:47.186Z,98865.31
2022-11-02T23:46:14.228Z,98866.97
2022-11-02T23:48:47.055Z,98859.31
2022-11-02T23:51:34.786Z,98855.53
2022-11-02T23:54:19.674Z,98848.53
2022-11-02T23:56:46.272Z,98841.25
2022-11-02T23:59:17.634Z,98839.75
